sensor_id;sensor_type;location;lat;lon;timestamp;P1;durP1;ratioP1;P2;durP2;ratioP2
2041;SDS011;1026;51.460;7.252;2023-01-08T00:01:05;2.00;;;1.87;;
2041;SDS011;1026;51.460;7.252;2023-01-08T00:03:32;1.60;;;1.50;;
2041;SDS011;1026;51.460;7.252;2023-01-08T00:06:00;2.97;;;1.83;;
2041;SDS011;1026;51.460;7.252;2023-01-08T00:08:27;3.70;;;1.93;;
2041;SDS011;1026;51.460;7.252;2023-01-08T00:10:53;1.30;;;1.20;;
2041;SDS011;1026;51.460;7.252;2023-01-08T00:13:19;1.97;;;1.87;;
2041;SDS011;1026;51.460;7.252;2023-01-08T00:15:45;1.57;;;1.47;;
2041;SDS011;1026;51.460;7.252;2023-01-08T00:18:11;1.50;;;1.40;;
2041;SDS011;1026;51.460;7.252;2023-01-08T00:20:40;1.97;;;1.60;;
2041;SDS011;1026;51.460;7.252;2023-01-08T00:23:08;2.50;;;2.30;;
2041;SDS011;1026;51.460;7.252;2023-01-08T00:25:52;1.40;;;1.30;;
2041;SDS011;1026;51.460;7.252;2023-01-08T00:28:17;1.93;;;1.77;;
2041;SDS011;1026;51.460;7.252;2023-01-08T00:30:45;1.30;;;1.20;;
2041;SDS011;1026;51.460;7.252;2023-01-08T00:33:16;1.47;;;1.37;;
2041;SDS011;1026;51.460;7.252;2023-01-08T00:36:05;1.40;;;1.30;;
2041;SDS011;1026;51.460;7.252;2023-01-08T00:38:32;2.03;;;1.30;;
2041;SDS011;1026;51.460;7.252;2023-01-08T00:40:58;1.30;;;1.20;;
2041;SDS011;1026;51.460;7.252;2023-01-08T00:43:24;1.50;;;1.40;;
2041;SDS011;1026;51.460;7.252;2023-01-08T00:45:49;1.80;;;1.60;;
2041;SDS011;1026;51.460;7.252;2023-01-08T00:48:35;1.67;;;1.53;;
2041;SDS011;1026;51.460;7.252;2023-01-08T00:51:02;1.57;;;1.47;;
2041;SDS011;1026;51.460;7.252;2023-01-08T00:53:29;1.47;;;1.37;;
2041;SDS011;1026;51.460;7.252;2023-01-08T00:55:58;1.30;;;1.20;;
2041;SDS011;1026;51.460;7.252;2023-01-08T00:58:26;2.63;;;2.53;;
2041;SDS011;1026;51.460;7.252;2023-01-08T01:00:55;2.07;;;1.87;;
2041;SDS011;1026;51.460;7.252;2023-01-08T01:03:20;2.13;;;1.40;;
2041;SDS011;1026;51.460;7.252;2023-01-08T01:05:46;1.30;;;1.20;;
2041;SDS011;1026;51.460;7.252;2023-01-08T01:08:12;1.63;;;1.53;;
2041;SDS011;1026;51.460;7.252;2023-01-08T01:10:38;1.70;;;1.60;;
2041;SDS011;1026;51.460;7.252;2023-01-08T01:13:04;1.70;;;1.57;;
2041;SDS011;1026;51.460;7.252;2023-01-08T01:15:30;1.00;;;1.00;;
2041;SDS011;1026;51.460;7.252;2023-01-08T01:17:56;1.77;;;1.67;;
2041;SDS011;1026;51.460;7.252;2023-01-08T01:20:21;1.47;;;1.37;;
2041;SDS011;1026;51.460;7.252;2023-01-08T01:22:53;2.00;;;1.80;;
2041;SDS011;1026;51.460;7.252;2023-01-08T01:25:19;2.90;;;1.23;;
2041;SDS011;1026;51.460;7.252;2023-01-08T01:27:45;1.50;;;1.40;;
2041;SDS011;1026;51.460;7.252;2023-01-08T01:30:10;1.50;;;1.40;;
2041;SDS011;1026;51.460;7.252;2023-01-08T01:32:36;1.70;;;1.27;;
2041;SDS011;1026;51.460;7.252;2023-01-08T01:35:02;2.20;;;1.40;;
2041;SDS011;1026;51.460;7.252;2023-01-08T01:37:28;1.53;;;1.43;;
2041;SDS011;1026;51.460;7.252;2023-01-08T01:39:53;1.53;;;1.43;;
2041;SDS011;1026;51.460;7.252;2023-01-08T01:42:23;2.00;;;1.43;;
2041;SDS011;1026;51.460;7.252;2023-01-08T01:45:12;2.27;;;1.23;;
2041;SDS011;1026;51.460;7.252;2023-01-08T01:47:41;2.33;;;1.60;;
2041;SDS011;1026;51.460;7.252;2023-01-08T01:52:38;1.43;;;1.30;;
2041;SDS011;1026;51.460;7.252;2023-01-08T01:55:07;2.67;;;1.30;;
2041;SDS011;1026;51.460;7.252;2023-01-08T01:57:35;1.57;;;1.47;;
2041;SDS011;1026;51.460;7.252;2023-01-08T02:00:03;1.40;;;1.30;;
2041;SDS011;1026;51.460;7.252;2023-01-08T02:02:33;1.30;;;1.20;;
2041;SDS011;1026;51.460;7.252;2023-01-08T02:05:00;1.30;;;1.20;;
2041;SDS011;1026;51.460;7.252;2023-01-08T02:07:29;2.00;;;1.70;;
2041;SDS011;1026;51.460;7.252;2023-01-08T02:13:07;1.00;;;0.90;;
2041;SDS011;1026;51.460;7.252;2023-01-08T02:18:27;1.23;;;1.10;;
2041;SDS011;1026;51.460;7.252;2023-01-08T02:26:16;1.40;;;1.30;;
2041;SDS011;1026;51.460;7.252;2023-01-08T02:28:46;1.60;;;1.50;;
2041;SDS011;1026;51.460;7.252;2023-01-08T02:31:13;1.50;;;1.40;;
2041;SDS011;1026;51.460;7.252;2023-01-08T02:33:59;1.97;;;1.40;;
2041;SDS011;1026;51.460;7.252;2023-01-08T02:36:34;1.90;;;1.30;;
2041;SDS011;1026;51.460;7.252;2023-01-08T02:39:08;4.50;;;1.80;;
2041;SDS011;1026;51.460;7.252;2023-01-08T02:42:03;1.50;;;1.40;;
2041;SDS011;1026;51.460;7.252;2023-01-08T02:47:29;1.60;;;1.40;;
2041;SDS011;1026;51.460;7.252;2023-01-08T02:50:03;1.73;;;1.63;;
2041;SDS011;1026;51.460;7.252;2023-01-08T02:52:41;2.40;;;1.63;;
2041;SDS011;1026;51.460;7.252;2023-01-08T02:55:14;2.03;;;1.93;;
2041;SDS011;1026;51.460;7.252;2023-01-08T02:57:41;1.80;;;1.50;;
2041;SDS011;1026;51.460;7.252;2023-01-08T03:00:07;1.83;;;1.50;;
2041;SDS011;1026;51.460;7.252;2023-01-08T03:02:34;1.27;;;1.20;;
2041;SDS011;1026;51.460;7.252;2023-01-08T03:05:04;1.73;;;1.60;;
2041;SDS011;1026;51.460;7.252;2023-01-08T03:07:36;1.70;;;1.60;;
2041;SDS011;1026;51.460;7.252;2023-01-08T03:10:02;2.70;;;1.73;;
2041;SDS011;1026;51.460;7.252;2023-01-08T03:12:40;1.70;;;1.53;;
2041;SDS011;1026;51.460;7.252;2023-01-08T03:15:12;3.13;;;1.63;;
2041;SDS011;1026;51.460;7.252;2023-01-08T03:17:45;1.50;;;1.10;;
2041;SDS011;1026;51.460;7.252;2023-01-08T03:20:15;2.47;;;1.33;;
2041;SDS011;1026;51.460;7.252;2023-01-08T03:22:44;2.07;;;1.87;;
2041;SDS011;1026;51.460;7.252;2023-01-08T03:25:13;1.77;;;1.67;;
2041;SDS011;1026;51.460;7.252;2023-01-08T03:27:42;1.20;;;1.07;;
2041;SDS011;1026;51.460;7.252;2023-01-08T03:30:12;1.73;;;1.27;;
2041;SDS011;1026;51.460;7.252;2023-01-08T03:32:41;1.27;;;1.07;;
2041;SDS011;1026;51.460;7.252;2023-01-08T03:35:09;1.40;;;1.30;;
2041;SDS011;1026;51.460;7.252;2023-01-08T03:37:38;1.80;;;1.70;;
2041;SDS011;1026;51.460;7.252;2023-01-08T03:40:10;2.60;;;1.63;;
2041;SDS011;1026;51.460;7.252;2023-01-08T03:42:57;1.30;;;1.20;;
2041;SDS011;1026;51.460;7.252;2023-01-08T03:45:22;1.70;;;1.50;;
2041;SDS011;1026;51.460;7.252;2023-01-08T03:47:50;1.60;;;1.50;;
2041;SDS011;1026;51.460;7.252;2023-01-08T03:50:20;1.73;;;1.60;;
2041;SDS011;1026;51.460;7.252;2023-01-08T03:52:50;2.20;;;1.80;;
2041;SDS011;1026;51.460;7.252;2023-01-08T03:55:16;2.10;;;1.80;;
2041;SDS011;1026;51.460;7.252;2023-01-08T03:57:41;4.33;;;1.80;;
2041;SDS011;1026;51.460;7.252;2023-01-08T04:00:10;1.67;;;1.40;;
2041;SDS011;1026;51.460;7.252;2023-01-08T04:02:37;2.10;;;1.87;;
2041;SDS011;1026;51.460;7.252;2023-01-08T04:05:06;1.97;;;1.60;;
2041;SDS011;1026;51.460;7.252;2023-01-08T04:07:40;1.30;;;1.20;;
2041;SDS011;1026;51.460;7.252;2023-01-08T04:10:06;1.90;;;1.50;;
2041;SDS011;1026;51.460;7.252;2023-01-08T04:12:32;1.47;;;1.37;;
2041;SDS011;1026;51.460;7.252;2023-01-08T04:14:58;2.33;;;1.60;;
2041;SDS011;1026;51.460;7.252;2023-01-08T04:17:23;1.37;;;1.27;;
2041;SDS011;1026;51.460;7.252;2023-01-08T04:19:49;1.30;;;1.20;;
2041;SDS011;1026;51.460;7.252;2023-01-08T04:22:15;2.00;;;1.77;;
2041;SDS011;1026;51.460;7.252;2023-01-08T04:24:40;4.37;;;1.50;;
2041;SDS011;1026;51.460;7.252;2023-01-08T04:27:06;2.50;;;1.80;;
2041;SDS011;1026;51.460;7.252;2023-01-08T04:29:32;1.27;;;1.20;;
2041;SDS011;1026;51.460;7.252;2023-01-08T04:31:58;1.50;;;1.40;;
2041;SDS011;1026;51.460;7.252;2023-01-08T04:34:24;1.90;;;1.60;;
2041;SDS011;1026;51.460;7.252;2023-01-08T04:36:49;1.50;;;1.33;;
2041;SDS011;1026;51.460;7.252;2023-01-08T04:39:15;1.60;;;1.47;;
2041;SDS011;1026;51.460;7.252;2023-01-08T04:41:41;1.30;;;1.20;;
2041;SDS011;1026;51.460;7.252;2023-01-08T04:44:07;1.63;;;1.20;;
2041;SDS011;1026;51.460;7.252;2023-01-08T04:46:33;1.27;;;1.13;;
2041;SDS011;1026;51.460;7.252;2023-01-08T04:49:02;1.50;;;1.33;;
2041;SDS011;1026;51.460;7.252;2023-01-08T04:51:28;1.97;;;1.40;;
2041;SDS011;1026;51.460;7.252;2023-01-08T04:53:53;2.40;;;1.70;;
2041;SDS011;1026;51.460;7.252;2023-01-08T04:56:25;1.33;;;1.23;;
2041;SDS011;1026;51.460;7.252;2023-01-08T04:58:51;2.50;;;1.77;;
2041;SDS011;1026;51.460;7.252;2023-01-08T05:01:17;1.50;;;1.40;;
2041;SDS011;1026;51.460;7.252;2023-01-08T05:03:45;2.20;;;1.40;;
2041;SDS011;1026;51.460;7.252;2023-01-08T05:06:11;2.80;;;1.10;;
2041;SDS011;1026;51.460;7.252;2023-01-08T05:08:37;1.07;;;0.97;;
2041;SDS011;1026;51.460;7.252;2023-01-08T05:11:03;1.47;;;1.37;;
2041;SDS011;1026;51.460;7.252;2023-01-08T05:13:29;1.10;;;1.00;;
2041;SDS011;1026;51.460;7.252;2023-01-08T05:15:58;1.50;;;1.40;;
2041;SDS011;1026;51.460;7.252;2023-01-08T05:18:24;1.93;;;1.10;;
2041;SDS011;1026;51.460;7.252;2023-01-08T05:20:52;2.43;;;1.40;;
2041;SDS011;1026;51.460;7.252;2023-01-08T05:23:18;1.57;;;1.10;;
2041;SDS011;1026;51.460;7.252;2023-01-08T05:25:44;0.93;;;0.90;;
2041;SDS011;1026;51.460;7.252;2023-01-08T05:28:24;1.13;;;1.00;;
2041;SDS011;1026;51.460;7.252;2023-01-08T05:31:03;1.33;;;1.23;;
2041;SDS011;1026;51.460;7.252;2023-01-08T05:33:29;1.63;;;1.30;;
2041;SDS011;1026;51.460;7.252;2023-01-08T05:35:55;1.20;;;1.03;;
2041;SDS011;1026;51.460;7.252;2023-01-08T05:38:22;1.80;;;1.40;;
2041;SDS011;1026;51.460;7.252;2023-01-08T05:40:50;1.00;;;1.00;;
2041;SDS011;1026;51.460;7.252;2023-01-08T05:43:16;1.03;;;1.03;;
2041;SDS011;1026;51.460;7.252;2023-01-08T05:45:42;1.30;;;1.10;;
2041;SDS011;1026;51.460;7.252;2023-01-08T05:48:08;1.10;;;1.00;;
2041;SDS011;1026;51.460;7.252;2023-01-08T05:50:34;0.90;;;0.90;;
2041;SDS011;1026;51.460;7.252;2023-01-08T05:52:59;1.27;;;1.17;;
2041;SDS011;1026;51.460;7.252;2023-01-08T05:55:25;0.90;;;0.80;;
2041;SDS011;1026;51.460;7.252;2023-01-08T05:57:51;1.00;;;1.00;;
2041;SDS011;1026;51.460;7.252;2023-01-08T06:00:16;1.53;;;1.40;;
2041;SDS011;1026;51.460;7.252;2023-01-08T06:02:46;1.20;;;1.10;;
2041;SDS011;1026;51.460;7.252;2023-01-08T06:05:12;1.30;;;1.17;;
2041;SDS011;1026;51.460;7.252;2023-01-08T06:07:37;0.80;;;0.80;;
2041;SDS011;1026;51.460;7.252;2023-01-08T06:10:12;1.20;;;1.10;;
2041;SDS011;1026;51.460;7.252;2023-01-08T06:12:44;1.50;;;0.90;;
2041;SDS011;1026;51.460;7.252;2023-01-08T06:15:11;1.20;;;0.80;;
2041;SDS011;1026;51.460;7.252;2023-01-08T06:17:36;1.40;;;1.00;;
2041;SDS011;1026;51.460;7.252;2023-01-08T06:20:02;1.33;;;1.20;;
2041;SDS011;1026;51.460;7.252;2023-01-08T06:22:35;1.07;;;0.97;;
2041;SDS011;1026;51.460;7.252;2023-01-08T06:25:01;1.50;;;1.20;;
2041;SDS011;1026;51.460;7.252;2023-01-08T06:27:28;1.13;;;1.03;;
2041;SDS011;1026;51.460;7.252;2023-01-08T06:29:54;1.00;;;0.90;;
2041;SDS011;1026;51.460;7.252;2023-01-08T06:32:22;0.80;;;0.80;;
2041;SDS011;1026;51.460;7.252;2023-01-08T06:34:51;1.30;;;1.20;;
2041;SDS011;1026;51.460;7.252;2023-01-08T06:37:17;1.17;;;1.07;;
2041;SDS011;1026;51.460;7.252;2023-01-08T06:39:42;1.43;;;1.33;;
2041;SDS011;1026;51.460;7.252;2023-01-08T06:42:08;1.20;;;1.10;;
2041;SDS011;1026;51.460;7.252;2023-01-08T06:44:33;1.00;;;0.90;;
2041;SDS011;1026;51.460;7.252;2023-01-08T06:46:59;2.07;;;1.40;;
2041;SDS011;1026;51.460;7.252;2023-01-08T06:49:28;1.83;;;1.03;;
2041;SDS011;1026;51.460;7.252;2023-01-08T06:51:53;1.03;;;0.80;;
2041;SDS011;1026;51.460;7.252;2023-01-08T06:54:19;0.83;;;0.80;;
2041;SDS011;1026;51.460;7.252;2023-01-08T06:56:47;1.00;;;0.80;;
2041;SDS011;1026;51.460;7.252;2023-01-08T06:59:13;1.03;;;1.00;;
2041;SDS011;1026;51.460;7.252;2023-01-08T07:01:39;1.00;;;0.73;;
2041;SDS011;1026;51.460;7.252;2023-01-08T07:04:04;0.73;;;0.73;;
2041;SDS011;1026;51.460;7.252;2023-01-08T07:06:30;0.60;;;0.60;;
2041;SDS011;1026;51.460;7.252;2023-01-08T07:08:56;0.83;;;0.83;;
2041;SDS011;1026;51.460;7.252;2023-01-08T07:11:21;0.90;;;0.90;;
2041;SDS011;1026;51.460;7.252;2023-01-08T07:13:47;1.30;;;1.00;;
2041;SDS011;1026;51.460;7.252;2023-01-08T07:16:13;0.93;;;0.90;;
2041;SDS011;1026;51.460;7.252;2023-01-08T07:18:40;1.33;;;1.23;;
2041;SDS011;1026;51.460;7.252;2023-01-08T07:21:07;1.20;;;0.80;;
2041;SDS011;1026;51.460;7.252;2023-01-08T07:23:33;1.13;;;0.90;;
2041;SDS011;1026;51.460;7.252;2023-01-08T07:26:00;1.10;;;1.00;;
2041;SDS011;1026;51.460;7.252;2023-01-08T07:28:27;1.27;;;0.80;;
2041;SDS011;1026;51.460;7.252;2023-01-08T07:30:53;0.80;;;0.80;;
2041;SDS011;1026;51.460;7.252;2023-01-08T07:33:19;2.10;;;1.27;;
2041;SDS011;1026;51.460;7.252;2023-01-08T07:35:52;0.60;;;0.60;;
2041;SDS011;1026;51.460;7.252;2023-01-08T07:38:19;0.60;;;0.57;;
2041;SDS011;1026;51.460;7.252;2023-01-08T07:40:45;0.87;;;0.53;;
2041;SDS011;1026;51.460;7.252;2023-01-08T07:43:10;1.00;;;1.00;;
2041;SDS011;1026;51.460;7.252;2023-01-08T07:45:37;1.07;;;1.00;;
2041;SDS011;1026;51.460;7.252;2023-01-08T07:48:03;1.10;;;1.00;;
2041;SDS011;1026;51.460;7.252;2023-01-08T07:50:29;1.87;;;0.73;;
2041;SDS011;1026;51.460;7.252;2023-01-08T07:52:56;1.83;;;0.63;;
2041;SDS011;1026;51.460;7.252;2023-01-08T07:55:24;0.70;;;0.70;;
2041;SDS011;1026;51.460;7.252;2023-01-08T07:57:50;0.90;;;0.60;;
2041;SDS011;1026;51.460;7.252;2023-01-08T08:00:16;1.33;;;0.87;;
2041;SDS011;1026;51.460;7.252;2023-01-08T08:02:42;0.87;;;0.83;;
2041;SDS011;1026;51.460;7.252;2023-01-08T08:05:08;0.80;;;0.80;;
2041;SDS011;1026;51.460;7.252;2023-01-08T08:07:34;1.07;;;0.70;;
2041;SDS011;1026;51.460;7.252;2023-01-08T08:10:00;1.50;;;0.73;;
2041;SDS011;1026;51.460;7.252;2023-01-08T08:12:26;2.17;;;0.80;;
2041;SDS011;1026;51.460;7.252;2023-01-08T08:14:51;0.90;;;0.73;;
2041;SDS011;1026;51.460;7.252;2023-01-08T08:17:17;0.77;;;0.77;;
2041;SDS011;1026;51.460;7.252;2023-01-08T08:19:43;0.80;;;0.80;;
2041;SDS011;1026;51.460;7.252;2023-01-08T08:22:09;0.60;;;0.60;;
2041;SDS011;1026;51.460;7.252;2023-01-08T08:24:36;0.80;;;0.80;;
2041;SDS011;1026;51.460;7.252;2023-01-08T08:27:01;3.73;;;0.80;;
2041;SDS011;1026;51.460;7.252;2023-01-08T08:29:27;2.67;;;0.90;;
2041;SDS011;1026;51.460;7.252;2023-01-08T08:32:00;1.03;;;0.80;;
2041;SDS011;1026;51.460;7.252;2023-01-08T08:34:25;1.53;;;0.60;;
2041;SDS011;1026;51.460;7.252;2023-01-08T08:36:51;1.03;;;0.47;;
2041;SDS011;1026;51.460;7.252;2023-01-08T08:39:16;2.00;;;0.70;;
2041;SDS011;1026;51.460;7.252;2023-01-08T08:41:42;0.80;;;0.60;;
2041;SDS011;1026;51.460;7.252;2023-01-08T08:44:08;0.67;;;0.60;;
2041;SDS011;1026;51.460;7.252;2023-01-08T08:46:34;0.87;;;0.47;;
2041;SDS011;1026;51.460;7.252;2023-01-08T08:49:00;0.67;;;0.67;;
2041;SDS011;1026;51.460;7.252;2023-01-08T08:51:25;0.60;;;0.50;;
2041;SDS011;1026;51.460;7.252;2023-01-08T08:53:51;0.97;;;0.70;;
2041;SDS011;1026;51.460;7.252;2023-01-08T08:56:17;2.00;;;0.70;;
2041;SDS011;1026;51.460;7.252;2023-01-08T08:58:43;1.13;;;0.77;;
2041;SDS011;1026;51.460;7.252;2023-01-08T09:01:09;2.30;;;0.70;;
2041;SDS011;1026;51.460;7.252;2023-01-08T09:03:36;0.80;;;0.80;;
2041;SDS011;1026;51.460;7.252;2023-01-08T09:06:02;2.23;;;0.80;;
2041;SDS011;1026;51.460;7.252;2023-01-08T09:08:28;1.07;;;0.80;;
2041;SDS011;1026;51.460;7.252;2023-01-08T09:10:54;1.53;;;0.70;;
2041;SDS011;1026;51.460;7.252;2023-01-08T09:13:22;0.60;;;0.60;;
2041;SDS011;1026;51.460;7.252;2023-01-08T09:15:48;1.70;;;0.60;;
2041;SDS011;1026;51.460;7.252;2023-01-08T09:18:14;2.67;;;0.70;;
2041;SDS011;1026;51.460;7.252;2023-01-08T09:20:54;1.70;;;0.90;;
2041;SDS011;1026;51.460;7.252;2023-01-08T09:23:19;0.60;;;0.50;;
2041;SDS011;1026;51.460;7.252;2023-01-08T09:25:45;1.23;;;0.80;;
2041;SDS011;1026;51.460;7.252;2023-01-08T09:28:11;2.57;;;1.10;;
2041;SDS011;1026;51.460;7.252;2023-01-08T09:30:37;1.00;;;0.57;;
2041;SDS011;1026;51.460;7.252;2023-01-08T09:33:04;2.43;;;0.80;;
2041;SDS011;1026;51.460;7.252;2023-01-08T09:35:30;0.87;;;0.70;;
2041;SDS011;1026;51.460;7.252;2023-01-08T09:37:57;0.80;;;0.70;;
2041;SDS011;1026;51.460;7.252;2023-01-08T09:40:27;3.03;;;1.10;;
2041;SDS011;1026;51.460;7.252;2023-01-08T09:42:59;2.03;;;0.70;;
2041;SDS011;1026;51.460;7.252;2023-01-08T09:45:27;4.03;;;1.20;;
2041;SDS011;1026;51.460;7.252;2023-01-08T09:47:55;5.30;;;1.70;;
2041;SDS011;1026;51.460;7.252;2023-01-08T09:50:25;4.10;;;1.13;;
2041;SDS011;1026;51.460;7.252;2023-01-08T09:52:52;5.17;;;1.40;;
2041;SDS011;1026;51.460;7.252;2023-01-08T09:55:18;5.10;;;1.37;;
2041;SDS011;1026;51.460;7.252;2023-01-08T09:57:45;4.37;;;0.97;;
2041;SDS011;1026;51.460;7.252;2023-01-08T10:00:21;2.57;;;0.97;;
2041;SDS011;1026;51.460;7.252;2023-01-08T10:02:51;3.43;;;1.10;;
2041;SDS011;1026;51.460;7.252;2023-01-08T10:05:18;0.80;;;0.80;;
2041;SDS011;1026;51.460;7.252;2023-01-08T10:07:44;2.93;;;0.60;;
2041;SDS011;1026;51.460;7.252;2023-01-08T10:10:15;4.03;;;2.40;;
2041;SDS011;1026;51.460;7.252;2023-01-08T10:12:44;9.23;;;1.97;;
2041;SDS011;1026;51.460;7.252;2023-01-08T10:15:13;1.87;;;0.90;;
2041;SDS011;1026;51.460;7.252;2023-01-08T10:17:44;1.30;;;1.20;;
2041;SDS011;1026;51.460;7.252;2023-01-08T10:22:38;4.53;;;1.50;;
2041;SDS011;1026;51.460;7.252;2023-01-08T10:25:06;1.30;;;0.80;;
2041;SDS011;1026;51.460;7.252;2023-01-08T10:27:43;2.50;;;1.00;;
2041;SDS011;1026;51.460;7.252;2023-01-08T10:30:14;1.47;;;0.80;;
2041;SDS011;1026;51.460;7.252;2023-01-08T10:32:45;2.43;;;1.20;;
2041;SDS011;1026;51.460;7.252;2023-01-08T10:35:16;1.77;;;1.00;;
2041;SDS011;1026;51.460;7.252;2023-01-08T10:37:43;3.13;;;1.10;;
2041;SDS011;1026;51.460;7.252;2023-01-08T10:40:23;2.00;;;0.93;;
2041;SDS011;1026;51.460;7.252;2023-01-08T10:42:56;1.27;;;0.60;;
2041;SDS011;1026;51.460;7.252;2023-01-08T10:45:29;6.37;;;1.00;;
2041;SDS011;1026;51.460;7.252;2023-01-08T10:47:58;2.20;;;0.77;;
2041;SDS011;1026;51.460;7.252;2023-01-08T10:50:28;4.00;;;0.83;;
2041;SDS011;1026;51.460;7.252;2023-01-08T10:52:58;2.83;;;1.40;;
2041;SDS011;1026;51.460;7.252;2023-01-08T10:55:26;1.50;;;1.27;;
2041;SDS011;1026;51.460;7.252;2023-01-08T10:57:54;1.10;;;0.70;;
2041;SDS011;1026;51.460;7.252;2023-01-08T11:00:24;2.87;;;0.97;;
2041;SDS011;1026;51.460;7.252;2023-01-08T11:02:51;1.07;;;0.90;;
2041;SDS011;1026;51.460;7.252;2023-01-08T11:05:17;1.07;;;0.70;;
2041;SDS011;1026;51.460;7.252;2023-01-08T11:07:46;1.90;;;1.17;;
2041;SDS011;1026;51.460;7.252;2023-01-08T11:10:21;1.57;;;1.00;;
2041;SDS011;1026;51.460;7.252;2023-01-08T11:12:53;2.20;;;0.90;;
2041;SDS011;1026;51.460;7.252;2023-01-08T11:17:46;2.53;;;1.27;;
2041;SDS011;1026;51.460;7.252;2023-01-08T11:20:18;0.60;;;0.60;;
2041;SDS011;1026;51.460;7.252;2023-01-08T11:23:02;1.60;;;1.23;;
2041;SDS011;1026;51.460;7.252;2023-01-08T11:25:30;2.10;;;0.90;;
2041;SDS011;1026;51.460;7.252;2023-01-08T11:27:56;3.70;;;1.03;;
2041;SDS011;1026;51.460;7.252;2023-01-08T11:30:25;1.17;;;1.00;;
2041;SDS011;1026;51.460;7.252;2023-01-08T11:33:01;2.13;;;1.10;;
2041;SDS011;1026;51.460;7.252;2023-01-08T11:35:40;1.40;;;1.30;;
2041;SDS011;1026;51.460;7.252;2023-01-08T11:38:11;1.70;;;1.00;;
2041;SDS011;1026;51.460;7.252;2023-01-08T11:43:31;1.23;;;1.10;;
2041;SDS011;1026;51.460;7.252;2023-01-08T11:49:11;0.80;;;0.80;;
2041;SDS011;1026;51.460;7.252;2023-01-08T11:52:08;1.53;;;0.77;;
2041;SDS011;1026;51.460;7.252;2023-01-08T11:54:52;1.27;;;0.70;;
2041;SDS011;1026;51.460;7.252;2023-01-08T12:08:53;2.43;;;1.00;;
2041;SDS011;1026;51.460;7.252;2023-01-08T12:14:05;4.20;;;2.60;;
2041;SDS011;1026;51.460;7.252;2023-01-08T12:16:40;1.27;;;1.03;;
2041;SDS011;1026;51.460;7.252;2023-01-08T12:19:38;1.73;;;1.13;;
2041;SDS011;1026;51.460;7.252;2023-01-08T12:22:25;0.93;;;0.77;;
2041;SDS011;1026;51.460;7.252;2023-01-08T12:25:15;1.37;;;0.90;;
2041;SDS011;1026;51.460;7.252;2023-01-08T12:28:07;1.33;;;0.87;;
2041;SDS011;1026;51.460;7.252;2023-01-08T12:30:52;0.90;;;0.80;;
2041;SDS011;1026;51.460;7.252;2023-01-08T12:33:48;1.27;;;0.80;;
2041;SDS011;1026;51.460;7.252;2023-01-08T12:36:21;1.70;;;0.80;;
2041;SDS011;1026;51.460;7.252;2023-01-08T12:38:53;1.10;;;0.80;;
2041;SDS011;1026;51.460;7.252;2023-01-08T12:41:24;1.43;;;0.70;;
2041;SDS011;1026;51.460;7.252;2023-01-08T12:43:53;1.33;;;0.70;;
2041;SDS011;1026;51.460;7.252;2023-01-08T12:46:31;0.80;;;0.80;;
2041;SDS011;1026;51.460;7.252;2023-01-08T12:48:59;1.50;;;0.80;;
2041;SDS011;1026;51.460;7.252;2023-01-08T12:51:34;2.50;;;0.60;;
2041;SDS011;1026;51.460;7.252;2023-01-08T12:57:04;1.40;;;1.30;;
2041;SDS011;1026;51.460;7.252;2023-01-08T13:04:39;0.90;;;0.70;;
2041;SDS011;1026;51.460;7.252;2023-01-08T13:07:10;0.97;;;0.60;;
2041;SDS011;1026;51.460;7.252;2023-01-08T13:09:42;1.53;;;0.70;;
2041;SDS011;1026;51.460;7.252;2023-01-08T13:12:08;1.57;;;1.07;;
2041;SDS011;1026;51.460;7.252;2023-01-08T13:14:41;0.97;;;0.80;;
2041;SDS011;1026;51.460;7.252;2023-01-08T13:17:15;2.00;;;1.53;;
2041;SDS011;1026;51.460;7.252;2023-01-08T13:19:44;2.20;;;0.80;;
2041;SDS011;1026;51.460;7.252;2023-01-08T13:25:37;0.60;;;0.60;;
2041;SDS011;1026;51.460;7.252;2023-01-08T13:27:45;0.90;;;0.70;;
2041;SDS011;1026;51.460;7.252;2023-01-08T13:32:57;0.80;;;0.70;;
2041;SDS011;1026;51.460;7.252;2023-01-08T13:35:25;0.80;;;0.60;;
2041;SDS011;1026;51.460;7.252;2023-01-08T13:43:21;1.27;;;0.90;;
2041;SDS011;1026;51.460;7.252;2023-01-08T13:46:13;1.20;;;1.00;;
2041;SDS011;1026;51.460;7.252;2023-01-08T13:48:46;1.23;;;0.60;;
2041;SDS011;1026;51.460;7.252;2023-01-08T13:51:29;1.17;;;0.70;;
2041;SDS011;1026;51.460;7.252;2023-01-08T13:54:01;2.13;;;0.97;;
2041;SDS011;1026;51.460;7.252;2023-01-08T13:56:31;0.90;;;0.70;;
2041;SDS011;1026;51.460;7.252;2023-01-08T13:58:57;0.60;;;0.60;;
2041;SDS011;1026;51.460;7.252;2023-01-08T14:01:23;0.70;;;0.60;;
2041;SDS011;1026;51.460;7.252;2023-01-08T14:03:49;1.33;;;0.60;;
2041;SDS011;1026;51.460;7.252;2023-01-08T14:06:15;0.97;;;0.87;;
2041;SDS011;1026;51.460;7.252;2023-01-08T14:08:48;1.60;;;0.63;;
2041;SDS011;1026;51.460;7.252;2023-01-08T14:11:15;0.80;;;0.70;;
2041;SDS011;1026;51.460;7.252;2023-01-08T14:13:42;1.47;;;0.73;;
2041;SDS011;1026;51.460;7.252;2023-01-08T14:16:10;2.13;;;0.67;;
2041;SDS011;1026;51.460;7.252;2023-01-08T14:18:40;1.17;;;1.00;;
2041;SDS011;1026;51.460;7.252;2023-01-08T14:21:07;1.13;;;0.80;;
2041;SDS011;1026;51.460;7.252;2023-01-08T14:23:36;0.90;;;0.70;;
2041;SDS011;1026;51.460;7.252;2023-01-08T14:26:05;2.10;;;0.90;;
2041;SDS011;1026;51.460;7.252;2023-01-08T14:28:32;1.40;;;0.63;;
2041;SDS011;1026;51.460;7.252;2023-01-08T14:30:59;1.20;;;1.10;;
2041;SDS011;1026;51.460;7.252;2023-01-08T14:33:30;1.10;;;1.00;;
2041;SDS011;1026;51.460;7.252;2023-01-08T14:35:58;2.10;;;1.13;;
2041;SDS011;1026;51.460;7.252;2023-01-08T14:38:25;1.53;;;0.80;;
2041;SDS011;1026;51.460;7.252;2023-01-08T14:40:59;0.73;;;0.73;;
2041;SDS011;1026;51.460;7.252;2023-01-08T14:43:31;2.27;;;0.73;;
2041;SDS011;1026;51.460;7.252;2023-01-08T14:46:02;1.60;;;0.87;;
2041;SDS011;1026;51.460;7.252;2023-01-08T14:48:31;0.60;;;0.60;;
2041;SDS011;1026;51.460;7.252;2023-01-08T14:51:06;0.67;;;0.63;;
2041;SDS011;1026;51.460;7.252;2023-01-08T14:53:35;1.33;;;0.70;;
2041;SDS011;1026;51.460;7.252;2023-01-08T14:56:05;0.73;;;0.70;;
2041;SDS011;1026;51.460;7.252;2023-01-08T14:58:37;0.50;;;0.50;;
2041;SDS011;1026;51.460;7.252;2023-01-08T15:01:05;0.80;;;0.60;;
2041;SDS011;1026;51.460;7.252;2023-01-08T15:03:40;2.13;;;0.73;;
2041;SDS011;1026;51.460;7.252;2023-01-08T15:06:08;0.70;;;0.70;;
2041;SDS011;1026;51.460;7.252;2023-01-08T15:11:02;1.97;;;1.00;;
2041;SDS011;1026;51.460;7.252;2023-01-08T15:13:31;0.93;;;0.50;;
2041;SDS011;1026;51.460;7.252;2023-01-08T15:16:00;2.03;;;1.47;;
2041;SDS011;1026;51.460;7.252;2023-01-08T15:18:33;1.27;;;0.60;;
2041;SDS011;1026;51.460;7.252;2023-01-08T15:21:06;1.37;;;1.10;;
2041;SDS011;1026;51.460;7.252;2023-01-08T15:23:36;1.07;;;0.80;;
2041;SDS011;1026;51.460;7.252;2023-01-08T15:26:10;1.83;;;0.70;;
2041;SDS011;1026;51.460;7.252;2023-01-08T15:28:58;0.90;;;0.70;;
2041;SDS011;1026;51.460;7.252;2023-01-08T15:31:56;0.80;;;0.80;;
2041;SDS011;1026;51.460;7.252;2023-01-08T15:34:12;1.90;;;0.87;;
2041;SDS011;1026;51.460;7.252;2023-01-08T15:36:45;4.93;;;1.27;;
2041;SDS011;1026;51.460;7.252;2023-01-08T15:39:11;0.80;;;0.80;;
2041;SDS011;1026;51.460;7.252;2023-01-08T15:41:37;1.77;;;1.20;;
2041;SDS011;1026;51.460;7.252;2023-01-08T15:44:20;0.60;;;0.60;;
2041;SDS011;1026;51.460;7.252;2023-01-08T15:47:02;1.73;;;0.70;;
2041;SDS011;1026;51.460;7.252;2023-01-08T15:49:28;1.17;;;0.70;;
2041;SDS011;1026;51.460;7.252;2023-01-08T15:51:53;0.83;;;0.77;;
2041;SDS011;1026;51.460;7.252;2023-01-08T15:54:19;1.07;;;0.80;;
2041;SDS011;1026;51.460;7.252;2023-01-08T15:56:49;0.80;;;0.60;;
2041;SDS011;1026;51.460;7.252;2023-01-08T15:59:14;1.47;;;0.70;;
2041;SDS011;1026;51.460;7.252;2023-01-08T16:01:40;1.30;;;0.90;;
2041;SDS011;1026;51.460;7.252;2023-01-08T16:04:06;1.23;;;0.80;;
2041;SDS011;1026;51.460;7.252;2023-01-08T16:06:33;1.20;;;0.77;;
2041;SDS011;1026;51.460;7.252;2023-01-08T16:09:06;5.70;;;0.90;;
2041;SDS011;1026;51.460;7.252;2023-01-08T16:11:32;0.77;;;0.60;;
2041;SDS011;1026;51.460;7.252;2023-01-08T16:13:57;1.23;;;0.80;;
2041;SDS011;1026;51.460;7.252;2023-01-08T16:16:23;0.77;;;0.70;;
2041;SDS011;1026;51.460;7.252;2023-01-08T16:18:49;0.80;;;0.60;;
2041;SDS011;1026;51.460;7.252;2023-01-08T16:21:14;1.60;;;0.83;;
2041;SDS011;1026;51.460;7.252;2023-01-08T16:23:40;1.07;;;0.63;;
2041;SDS011;1026;51.460;7.252;2023-01-08T16:26:07;0.70;;;0.50;;
2041;SDS011;1026;51.460;7.252;2023-01-08T16:28:35;1.10;;;0.90;;
2041;SDS011;1026;51.460;7.252;2023-01-08T16:31:02;1.40;;;0.60;;